sensor_id;sensor_type;location;lat;lon;timestamp;pressure;altitude;pressure_sealevel;temperature;humidity
10806;BME280;5455;53.224;6.000;2023-03-20T00:02:20;101834.47;;;7.28;100.00
10806;BME280;5455;53.224;6.000;2023-03-20T00:04:47;101829.81;;;7.29;100.00
10806;BME280;5455;53.224;6.000;2023-03-20T00:07:14;101837.22;;;7.28;100.00
10806;BME280;5455;53.224;6.000;2023-03-20T00:09:41;101848.38;;;7.32;100.00
10806;BME280;5455;53.224;6.000;2023-03-20T00:12:13;101856.00;;;7.35;100.00
10806;BME280;5455;53.224;6.000;2023-03-20T00:14:41;101854.06;;;7.35;100.00
10806;BME280;5455;53.224;6.000;2023-03-20T00:17:10;101856.00;;;7.35;100.00
10806;BME280;5455;53.224;6.000;2023-03-20T00:19:44;101852.91;;;7.36;100.00
10806;BME280;5455;53.224;6.000;2023-03-20T00:22:12;101849.19;;;7.32;100.00
10806;BME280;5455;53.224;6.000;2023-03-20T00:24:39;101850.00;;;7.33;100.00
10806;BME280;5455;53.224;6.000;2023-03-20T00:27:11;101862.09;;;7.32;100.00
10806;BME280;5455;53.224;6.000;2023-03-20T00:29:39;101857.72;;;7.31;100.00
10806;BME280;5455;53.224;6.000;2023-03-20T00:32:13;101861.09;;;7.28;100.00
10806;BME280;5455;53.224;6.000;2023-03-20T00:34:41;101854.00;;;7.27;100.00
10806;BME280;5455;53.224;6.000;2023-03-20T00:37:09;101861.72;;;7.25;100.00
10806;BME280;5455;53.224;6.000;2023-03-20T00:39:37;101866.09;;;7.26;100.00
10806;BME280;5455;53.224;6.000;2023-03-20T00:42:05;101864.97;;;7.27;100.00
10806;BME280;5455;53.224;6.000;2023-03-20T00:44:39;101866.09;;;7.26;100.00
10806;BME280;5455;53.224;6.000;2023-03-20T00:47:13;101871.78;;;7.29;100.00
10806;BME280;5455;53.224;6.000;2023-03-20T00:49:42;101871.44;;;7.31;100.00
10806;BME280;5455;53.224;6.000;2023-03-20T00:52:10;101864.34;;;7.30;100.00
10806;BME280;5455;53.224;6.000;2023-03-20T00:54:39;101867.41;;;7.28;100.00
10806;BME280;5455;53.224;6.000;2023-03-20T00:57:27;101869.66;;;7.26;100.00
10806;BME280;5455;53.224;6.000;2023-03-20T01:00:03;101862.41;;;7.30;100.00
10806;BME280;5455;53.224;6.000;2023-03-20T01:02:32;101859.78;;;7.25;100.00
10806;BME280;5455;53.224;6.000;2023-03-20T01:05:00;101863.53;;;7.29;100.00
10806;BME280;5455;53.224;6.000;2023-03-20T01:07:27;101850.63;;;7.30;100.00
10806;BME280;5455;53.224;6.000;2023-03-20T01:09:54;101854.78;;;7.27;100.00
10806;BME280;5455;53.224;6.000;2023-03-20T01:12:22;101845.16;;;7.30;100.00
10806;BME280;5455;53.224;6.000;2023-03-20T01:14:53;101857.09;;;7.34;100.00
10806;BME280;5455;53.224;6.000;2023-03-20T01:17:21;101865.53;;;7.37;100.00
10806;BME280;5455;53.224;6.000;2023-03-20T01:19:50;101862.78;;;7.37;100.00
10806;BME280;5455;53.224;6.000;2023-03-20T01:22:17;101853.94;;;7.40;100.00
10806;BME280;5455;53.224;6.000;2023-03-20T01:24:45;101842.31;;;7.43;100.00
10806;BME280;5455;53.224;6.000;2023-03-20T01:27:15;101844.25;;;7.43;100.00
10806;BME280;5455;53.224;6.000;2023-03-20T01:29:43;101840.88;;;7.46;100.00
10806;BME280;5455;53.224;6.000;2023-03-20T01:32:16;101836.22;;;7.46;100.00
10806;BME280;5455;53.224;6.000;2023-03-20T01:34:49;101840.59;;;7.47;100.00
10806;BME280;5455;53.224;6.000;2023-03-20T01:37:23;101841.41;;;7.48;100.00
10806;BME280;5455;53.224;6.000;2023-03-20T01:39:52;101842.69;;;7.50;100.00
10806;BME280;5455;53.224;6.000;2023-03-20T01:42:19;101837.22;;;7.50;100.00
10806;BME280;5455;53.224;6.000;2023-03-20T01:44:47;101831.72;;;7.50;100.00
10806;BME280;5455;53.224;6.000;2023-03-20T01:47:17;101830.28;;;7.53;100.00
10806;BME280;5455;53.224;6.000;2023-03-20T01:50:17;101832.69;;;7.54;100.00
10806;BME280;5455;53.224;6.000;2023-03-20T01:52:49;101825.28;;;7.55;100.00
10806;BME280;5455;53.224;6.000;2023-03-20T01:55:19;101824.47;;;7.54;100.00
10806;BME280;5455;53.224;6.000;2023-03-20T01:57:53;101797.84;;;7.55;100.00
10806;BME280;5455;53.224;6.000;2023-03-20T02:00:22;101798.66;;;7.55;100.00
10806;BME280;5455;53.224;6.000;2023-03-20T02:02:50;101807.22;;;7.54;100.00
10806;BME280;5455;53.224;6.000;2023-03-20T02:05:38;101809.97;;;7.54;100.00
10806;BME280;5455;53.224;6.000;2023-03-20T02:08:27;101802.03;;;7.52;100.00
10806;BME280;5455;53.224;6.000;2023-03-20T02:10:59;101809.13;;;7.53;100.00
10806;BME280;5455;53.224;6.000;2023-03-20T02:13:30;101800.56;;;7.55;100.00
10806;BME280;5455;53.224;6.000;2023-03-20T02:16:05;101792.03;;;7.56;100.00
10806;BME280;5455;53.224;6.000;2023-03-20T02:18:55;101786.56;;;7.56;100.00
10806;BME280;5455;53.224;6.000;2023-03-20T02:28:10;101788.16;;;7.57;100.00
10806;BME280;5455;53.224;6.000;2023-03-20T02:44:13;101763.00;;;7.64;100.00
10806;BME280;5455;53.224;6.000;2023-03-20T02:46:57;101756.41;;;7.65;100.00
10806;BME280;5455;53.224;6.000;2023-03-20T02:57:37;101755.94;;;7.71;100.00
10806;BME280;5455;53.224;6.000;2023-03-20T03:00:17;101744.97;;;7.71;100.00
10806;BME280;5455;53.224;6.000;2023-03-20T03:02:51;101747.38;;;7.73;100.00
10806;BME280;5455;53.224;6.000;2023-03-20T03:05:26;101734.47;;;7.73;100.00
10806;BME280;5455;53.224;6.000;2023-03-20T03:07:58;101737.53;;;7.72;100.00
10806;BME280;5455;53.224;6.000;2023-03-20T03:10:36;101727.03;;;7.74;100.00
10806;BME280;5455;53.224;6.000;2023-03-20T03:13:12;101728.97;;;7.73;100.00
10806;BME280;5455;53.224;6.000;2023-03-20T03:15:47;101734.94;;;7.75;100.00
10806;BME280;5455;53.224;6.000;2023-03-20T03:18:22;101731.91;;;7.77;100.00
10806;BME280;5455;53.224;6.000;2023-03-20T03:20:54;101722.53;;;7.78;100.00
10806;BME280;5455;53.224;6.000;2023-03-20T03:23:31;101718.19;;;7.77;100.00
10806;BME280;5455;53.224;6.000;2023-03-20T03:26:01;101730.44;;;7.80;100.00
10806;BME280;5455;53.224;6.000;2023-03-20T03:28:37;101725.44;;;7.82;100.00
10806;BME280;5455;53.224;6.000;2023-03-20T03:31:14;101721.09;;;7.81;100.00
10806;BME280;5455;53.224;6.000;2023-03-20T03:33:46;101717.22;;;7.82;100.00
10806;BME280;5455;53.224;6.000;2023-03-20T03:41:49;101699.63;;;7.83;100.00
10806;BME280;5455;53.224;6.000;2023-03-20T03:44:40;101707.03;;;7.82;100.00
10806;BME280;5455;53.224;6.000;2023-03-20T03:47:20;101700.44;;;7.83;100.00
10806;BME280;5455;53.224;6.000;2023-03-20T03:49:55;101700.09;;;7.85;100.00
10806;BME280;5455;53.224;6.000;2023-03-20T03:52:29;101695.41;;;7.85;100.00
10806;BME280;5455;53.224;6.000;2023-03-20T03:55:02;101698.97;;;7.86;100.00
10806;BME280;5455;53.224;6.000;2023-03-20T04:00:45;101700.09;;;7.85;100.00
10806;BME280;5455;53.224;6.000;2023-03-20T04:03:18;101697.69;;;7.83;100.00
10806;BME280;5455;53.224;6.000;2023-03-20T04:05:51;101694.44;;;7.81;100.00
10806;BME280;5455;53.224;6.000;2023-03-20T04:08:20;101695.88;;;7.78;100.00
10806;BME280;5455;53.224;6.000;2023-03-20T04:10:47;101699.44;;;7.79;100.00
10806;BME280;5455;53.224;6.000;2023-03-20T04:13:15;101695.06;;;7.78;100.00
10806;BME280;5455;53.224;6.000;2023-03-20T04:15:43;101696.69;;;7.79;100.00
10806;BME280;5455;53.224;6.000;2023-03-20T04:18:14;101694.75;;;7.80;100.00
10806;BME280;5455;53.224;6.000;2023-03-20T04:20:45;101682.16;;;7.78;100.00
10806;BME280;5455;53.224;6.000;2023-03-20T04:23:13;101684.09;;;7.78;100.00
10806;BME280;5455;53.224;6.000;2023-03-20T04:25:41;101680.88;;;7.76;100.00
10806;BME280;5455;53.224;6.000;2023-03-20T04:28:08;101683.59;;;7.76;100.00
10806;BME280;5455;53.224;6.000;2023-03-20T04:30:54;101684.25;;;7.73;100.00
10806;BME280;5455;53.224;6.000;2023-03-20T04:33:32;101678.28;;;7.71;100.00
10806;BME280;5455;53.224;6.000;2023-03-20T04:36:04;101679.38;;;7.70;100.00
10806;BME280;5455;53.224;6.000;2023-03-20T04:38:32;101675.84;;;7.69;100.00
10806;BME280;5455;53.224;6.000;2023-03-20T04:40:59;101673.91;;;7.70;100.00
10806;BME280;5455;53.224;6.000;2023-03-20T04:43:27;101674.25;;;7.68;100.00
10806;BME280;5455;53.224;6.000;2023-03-20T04:45:55;101682.47;;;7.68;100.00
10806;BME280;5455;53.224;6.000;2023-03-20T04:48:22;101677.78;;;7.69;100.00
10806;BME280;5455;53.224;6.000;2023-03-20T04:50:49;101679.72;;;7.68;100.00
10806;BME280;5455;53.224;6.000;2023-03-20T04:53:21;101680.53;;;7.69;100.00
10806;BME280;5455;53.224;6.000;2023-03-20T04:55:50;101680.53;;;7.69;100.00
10806;BME280;5455;53.224;6.000;2023-03-20T04:58:17;101682.94;;;7.70;100.00
10806;BME280;5455;53.224;6.000;2023-03-20T05:00:45;101682.94;;;7.70;100.00
10806;BME280;5455;53.224;6.000;2023-03-20T05:03:12;101686.50;;;7.71;100.00
10806;BME280;5455;53.224;6.000;2023-03-20T05:05:39;101684.88;;;7.70;100.00
10806;BME280;5455;53.224;6.000;2023-03-20T05:08:06;101683.75;;;7.71;100.00
10806;BME280;5455;53.224;6.000;2023-03-20T05:10:35;101690.72;;;7.68;100.00
10806;BME280;5455;53.224;6.000;2023-03-20T05:13:20;101679.22;;;7.66;100.00
10806;BME280;5455;53.224;6.000;2023-03-20T05:15:56;101687.44;;;7.66;100.00
10806;BME280;5455;53.224;6.000;2023-03-20T05:18:36;101679.56;;;7.65;100.00
10806;BME280;5455;53.224;6.000;2023-03-20T05:21:24;101671.63;;;7.63;100.00
10806;BME280;5455;53.224;6.000;2023-03-20T05:24:09;101679.38;;;7.61;100.00
10806;BME280;5455;53.224;6.000;2023-03-20T05:27:08;101683.25;;;7.60;100.00
10806;BME280;5455;53.224;6.000;2023-03-20T05:29:46;101690.69;;;7.60;100.00
10806;BME280;5455;53.224;6.000;2023-03-20T05:32:32;101688.72;;;7.60;100.00
10806;BME280;5455;53.224;6.000;2023-03-20T05:35:04;101692.78;;;7.63;100.00
10806;BME280;5455;53.224;6.000;2023-03-20T05:37:53;101701.81;;;7.63;100.00
10806;BME280;5455;53.224;6.000;2023-03-20T05:40:40;101699.06;;;7.63;100.00
10806;BME280;5455;53.224;6.000;2023-03-20T05:43:26;101703.78;;;7.63;100.00
10806;BME280;5455;53.224;6.000;2023-03-20T05:46:17;101702.31;;;7.65;100.00
10806;BME280;5455;53.224;6.000;2023-03-20T05:49:11;101703.78;;;7.63;100.00
10806;BME280;5455;53.224;6.000;2023-03-20T05:52:01;101704.88;;;7.62;100.00
10806;BME280;5455;53.224;6.000;2023-03-20T05:54:54;101702.44;;;7.60;100.00
10806;BME280;5455;53.224;6.000;2023-03-20T05:57:45;101694.22;;;7.60;100.00
10806;BME280;5455;53.224;6.000;2023-03-20T06:00:41;101689.88;;;7.59;100.00
10806;BME280;5455;53.224;6.000;2023-03-20T06:03:37;101701.31;;;7.61;100.00
10806;BME280;5455;53.224;6.000;2023-03-20T06:06:10;101705.38;;;7.64;100.00
10806;BME280;5455;53.224;6.000;2023-03-20T06:08:38;101707.81;;;7.65;100.00
10806;BME280;5455;53.224;6.000;2023-03-20T06:11:07;101723.94;;;7.67;100.00
10806;BME280;5455;53.224;6.000;2023-03-20T06:13:37;101719.44;;;7.71;100.00
10806;BME280;5455;53.224;6.000;2023-03-20T06:16:04;101717.81;;;7.70;100.00
10806;BME280;5455;53.224;6.000;2023-03-20T06:18:32;101710.41;;;7.70;100.00
10806;BME280;5455;53.224;6.000;2023-03-20T06:20:59;101712.03;;;7.71;100.00
10806;BME280;5455;53.224;6.000;2023-03-20T06:23:28;101708.13;;;7.72;100.00
10806;BME280;5455;53.224;6.000;2023-03-20T06:25:56;101707.34;;;7.72;100.00
10806;BME280;5455;53.224;6.000;2023-03-20T06:28:24;101703.47;;;7.73;100.00
10806;BME280;5455;53.224;6.000;2023-03-20T06:30:59;101702.81;;;7.76;100.00
10806;BME280;5455;53.224;6.000;2023-03-20T06:33:27;101723.34;;;7.78;100.00
10806;BME280;5455;53.224;6.000;2023-03-20T06:35:58;101716.72;;;7.80;100.00
10806;BME280;5455;53.224;6.000;2023-03-20T06:38:28;101714.16;;;7.83;100.00
10806;BME280;5455;53.224;6.000;2023-03-20T06:40:57;101718.38;;;7.89;100.00
10806;BME280;5455;53.224;6.000;2023-03-20T06:43:24;101729.19;;;7.94;100.00
10806;BME280;5455;53.224;6.000;2023-03-20T06:45:52;101726.63;;;7.98;100.00
10806;BME280;5455;53.224;6.000;2023-03-20T06:48:25;101725.00;;;8.05;100.00
10806;BME280;5455;53.224;6.000;2023-03-20T06:50:53;101727.13;;;8.08;100.00
10806;BME280;5455;53.224;6.000;2023-03-20T06:53:25;101725.03;;;8.14;100.00
10806;BME280;5455;53.224;6.000;2023-03-20T06:56:21;101730.84;;;8.21;100.00
10806;BME280;5455;53.224;6.000;2023-03-20T06:58:50;101727.97;;;8.26;100.00
10806;BME280;5455;53.224;6.000;2023-03-20T07:01:17;101731.84;;;8.25;100.00
10806;BME280;5455;53.224;6.000;2023-03-20T07:03:46;101727.47;;;8.24;100.00
10806;BME280;5455;53.224;6.000;2023-03-20T07:06:18;101725.56;;;8.33;100.00
10806;BME280;5455;53.224;6.000;2023-03-20T07:08:45;101732.53;;;8.39;100.00
10806;BME280;5455;53.224;6.000;2023-03-20T07:11:12;101728.97;;;8.47;100.00
10806;BME280;5455;53.224;6.000;2023-03-20T07:13:40;101729.94;;;8.51;100.00
10806;BME280;5455;53.224;6.000;2023-03-20T07:16:20;101735.78;;;8.50;100.00
10806;BME280;5455;53.224;6.000;2023-03-20T07:18:48;101735.25;;;8.48;100.00
10806;BME280;5455;53.224;6.000;2023-03-20T07:21:18;101738.00;;;8.48;100.00
10806;BME280;5455;53.224;6.000;2023-03-20T07:23:46;101730.09;;;8.46;100.00
10806;BME280;5455;53.224;6.000;2023-03-20T07:26:13;101741.91;;;8.47;100.00
10806;BME280;5455;53.224;6.000;2023-03-20T07:28:40;101733.16;;;8.45;100.00
10806;BME280;5455;53.224;6.000;2023-03-20T07:31:21;101736.25;;;8.43;100.00
10806;BME280;5455;53.224;6.000;2023-03-20T07:33:55;101757.59;;;8.46;100.00
10806;BME280;5455;53.224;6.000;2023-03-20T07:36:23;101750.47;;;8.45;100.00
10806;BME280;5455;53.224;6.000;2023-03-20T07:38:50;101756.44;;;8.47;100.00
10806;BME280;5455;53.224;6.000;2023-03-20T07:41:17;101753.56;;;8.52;100.00
10806;BME280;5455;53.224;6.000;2023-03-20T07:43:55;101745.31;;;8.52;100.00
10806;BME280;5455;53.224;6.000;2023-03-20T07:46:45;101755.00;;;8.58;100.00
10806;BME280;5455;53.224;6.000;2023-03-20T07:49:15;101754.53;;;8.65;100.00
10806;BME280;5455;53.224;6.000;2023-03-20T07:51:46;101756.63;;;8.76;100.00
10806;BME280;5455;53.224;6.000;2023-03-20T07:54:14;101749.19;;;8.85;100.00
10806;BME280;5455;53.224;6.000;2023-03-20T07:56:42;101752.41;;;8.88;100.00
10806;BME280;5455;53.224;6.000;2023-03-20T07:59:09;101748.34;;;8.94;100.00
10806;BME280;5455;53.224;6.000;2023-03-20T08:01:37;101747.69;;;8.97;100.00
10806;BME280;5455;53.224;6.000;2023-03-20T08:04:04;101746.72;;;8.93;100.00
10806;BME280;5455;53.224;6.000;2023-03-20T08:06:31;101748.97;;;8.99;100.00
10806;BME280;5455;53.224;6.000;2023-03-20T08:08:59;101749.47;;;8.93;100.00
10806;BME280;5455;53.224;6.000;2023-03-20T08:11:26;101753.69;;;8.90;100.00
10806;BME280;5455;53.224;6.000;2023-03-20T08:13:53;101748.69;;;8.92;100.00
10806;BME280;5455;53.224;6.000;2023-03-20T08:16:20;101752.53;;;9.00;100.00
10806;BME280;5455;53.224;6.000;2023-03-20T08:18:47;101748.84;;;9.04;100.00
10806;BME280;5455;53.224;6.000;2023-03-20T08:21:16;101747.19;;;9.03;100.00
10806;BME280;5455;53.224;6.000;2023-03-20T08:23:43;101751.09;;;9.02;100.00
10806;BME280;5455;53.224;6.000;2023-03-20T08:26:10;101741.06;;;9.06;100.00
10806;BME280;5455;53.224;6.000;2023-03-20T08:28:37;101741.03;;;9.15;100.00
10806;BME280;5455;53.224;6.000;2023-03-20T08:31:15;101751.84;;;9.20;100.00
10806;BME280;5455;53.224;6.000;2023-03-20T08:33:46;101751.34;;;9.26;100.00
10806;BME280;5455;53.224;6.000;2023-03-20T08:36:14;101758.75;;;9.34;100.00
10806;BME280;5455;53.224;6.000;2023-03-20T08:38:41;101752.09;;;9.44;100.00
10806;BME280;5455;53.224;6.000;2023-03-20T08:41:09;101740.13;;;9.49;100.00
10806;BME280;5455;53.224;6.000;2023-03-20T08:43:36;101745.78;;;9.52;100.00
10806;BME280;5455;53.224;6.000;2023-03-20T08:46:04;101755.97;;;9.52;100.00
10806;BME280;5455;53.224;6.000;2023-03-20T08:48:31;101751.41;;;9.64;100.00
10806;BME280;5455;53.224;6.000;2023-03-20T08:50:58;101755.56;;;9.70;100.00
10806;BME280;5455;53.224;6.000;2023-03-20T08:53:25;101746.41;;;9.87;100.00
10806;BME280;5455;53.224;6.000;2023-03-20T08:55:53;101751.56;;;9.88;100.00
10806;BME280;5455;53.224;6.000;2023-03-20T08:58:21;101736.47;;;9.94;100.00
10806;BME280;5455;53.224;6.000;2023-03-20T09:00:48;101746.50;;;9.99;100.00
10806;BME280;5455;53.224;6.000;2023-03-20T09:03:18;101737.88;;;10.09;100.00
10806;BME280;5455;53.224;6.000;2023-03-20T09:05:48;101741.53;;;10.22;100.00
10806;BME280;5455;53.224;6.000;2023-03-20T09:08:16;101739.88;;;10.29;100.00
10806;BME280;5455;53.224;6.000;2023-03-20T09:10:46;101735.63;;;10.32;100.00
10806;BME280;5455;53.224;6.000;2023-03-20T09:13:13;101732.88;;;10.32;100.00
10806;BME280;5455;53.224;6.000;2023-03-20T09:15:54;101742.22;;;10.10;100.00
10806;BME280;5455;53.224;6.000;2023-03-20T09:18:22;101743.91;;;10.03;100.00
10806;BME280;5455;53.224;6.000;2023-03-20T09:20:49;101745.50;;;10.04;100.00
10806;BME280;5455;53.224;6.000;2023-03-20T09:23:17;101747.59;;;10.07;100.00
10806;BME280;5455;53.224;6.000;2023-03-20T09:25:45;101749.34;;;10.11;100.00
10806;BME280;5455;53.224;6.000;2023-03-20T09:28:12;101746.16;;;10.01;100.00
10806;BME280;5455;53.224;6.000;2023-03-20T09:30:39;101751.50;;;10.06;100.00
10806;BME280;5455;53.224;6.000;2023-03-20T09:33:09;101751.75;;;10.13;100.00
10806;BME280;5455;53.224;6.000;2023-03-20T09:35:37;101753.84;;;10.24;100.00
10806;BME280;5455;53.224;6.000;2023-03-20T09:38:04;101758.28;;;10.37;100.00
10806;BME280;5455;53.224;6.000;2023-03-20T09:43:33;101753.63;;;10.71;100.00
10806;BME280;5455;53.224;6.000;2023-03-20T09:51:41;101750.88;;;10.71;100.00
10806;BME280;5455;53.224;6.000;2023-03-20T09:54:21;101757.72;;;10.85;100.00
10806;BME280;5455;53.224;6.000;2023-03-20T09:56:53;101749.88;;;10.75;100.00
10806;BME280;5455;53.224;6.000;2023-03-20T09:59:23;101744.63;;;10.62;100.00
10806;BME280;5455;53.224;6.000;2023-03-20T10:01:58;101747.38;;;10.82;100.00
10806;BME280;5455;53.224;6.000;2023-03-20T10:04:28;101747.28;;;10.91;100.00
10806;BME280;5455;53.224;6.000;2023-03-20T10:06:55;101758.66;;;10.89;100.00
10806;BME280;5455;53.224;6.000;2023-03-20T10:09:25;101764.81;;;10.74;100.00
10806;BME280;5455;53.224;6.000;2023-03-20T10:20:26;101755.72;;;10.74;100.00
10806;BME280;5455;53.224;6.000;2023-03-20T10:23:26;101757.00;;;10.76;100.00
10806;BME280;5455;53.224;6.000;2023-03-20T10:26:06;101745.25;;;10.46;100.00
10806;BME280;5455;53.224;6.000;2023-03-20T10:28:46;101756.06;;;10.31;100.00
10806;BME280;5455;53.224;6.000;2023-03-20T10:34:47;101749.13;;;10.25;100.00
10806;BME280;5455;53.224;6.000;2023-03-20T10:38:36;101753.72;;;10.41;100.00
10806;BME280;5455;53.224;6.000;2023-03-20T10:40:33;101762.00;;;10.62;100.00
10806;BME280;5455;53.224;6.000;2023-03-20T10:43:10;101754.66;;;10.45;100.00
10806;BME280;5455;53.224;6.000;2023-03-20T10:45:55;101760.28;;;10.28;100.00
10806;BME280;5455;53.224;6.000;2023-03-20T10:48:30;101758.56;;;10.24;100.00
10806;BME280;5455;53.224;6.000;2023-03-20T10:51:01;101753.97;;;10.28;100.00
10806;BME280;5455;53.224;6.000;2023-03-20T10:53:36;101750.38;;;10.36;100.00
10806;BME280;5455;53.224;6.000;2023-03-20T10:56:10;101754.91;;;10.32;100.00
10806;BME280;5455;53.224;6.000;2023-03-20T10:58:44;101754.53;;;10.21;100.00
10806;BME280;5455;53.224;6.000;2023-03-20T11:01:12;101746.84;;;10.27;100.00
10806;BME280;5455;53.224;6.000;2023-03-20T11:03:39;101746.13;;;10.38;100.00
10806;BME280;5455;53.224;6.000;2023-03-20T11:06:28;101740.19;;;10.28;100.00
10806;BME280;5455;53.224;6.000;2023-03-20T11:09:10;101738.66;;;10.10;100.00
10806;BME280;5455;53.224;6.000;2023-03-20T11:11:38;101738.66;;;9.80;100.00
10806;BME280;5455;53.224;6.000;2023-03-20T11:14:21;101741.28;;;9.77;100.00
10806;BME280;5455;53.224;6.000;2023-03-20T11:16:51;101731.22;;;9.81;100.00
10806;BME280;5455;53.224;6.000;2023-03-20T11:19:20;101736.91;;;9.76;100.00
10806;BME280;5455;53.224;6.000;2023-03-20T11:21:53;101734.72;;;9.90;100.00
10806;BME280;5455;53.224;6.000;2023-03-20T11:24:33;101725.34;;;9.91;100.00
10806;BME280;5455;53.224;6.000;2023-03-20T11:27:09;101717.34;;;9.69;100.00
10806;BME280;5455;53.224;6.000;2023-03-20T11:29:38;101727.56;;;9.68;100.00
10806;BME280;5455;53.224;6.000;2023-03-20T11:32:30;101718.63;;;9.71;100.00
10806;BME280;5455;53.224;6.000;2023-03-20T11:35:28;101717.59;;;9.55;100.00
10806;BME280;5455;53.224;6.000;2023-03-20T11:38:29;101725.78;;;9.26;100.00
10806;BME280;5455;53.224;6.000;2023-03-20T11:40:57;101713.38;;;9.03;100.00
10806;BME280;5455;53.224;6.000;2023-03-20T11:43:26;101709.66;;;8.99;100.00
10806;BME280;5455;53.224;6.000;2023-03-20T11:45:56;101709.53;;;8.86;100.00
10806;BME280;5455;53.224;6.000;2023-03-20T11:48:34;101709.38;;;8.92;100.00
10806;BME280;5455;53.224;6.000;2023-03-20T11:51:07;101710.38;;;8.70;100.00
10806;BME280;5455;53.224;6.000;2023-03-20T11:53:39;101707.44;;;8.66;100.00
10806;BME280;5455;53.224;6.000;2023-03-20T12:01:45;101708.28;;;8.58;100.00
10806;BME280;5455;53.224;6.000;2023-03-20T12:04:16;101713.28;;;8.65;100.00
10806;BME280;5455;53.224;6.000;2023-03-20T12:06:52;101705.34;;;8.72;100.00
10806;BME280;5455;53.224;6.000;2023-03-20T12:09:28;101707.63;;;8.70;100.00
10806;BME280;5455;53.224;6.000;2023-03-20T12:14:53;101701.94;;;8.66;100.00
10806;BME280;5455;53.224;6.000;2023-03-20T12:20:05;101693.88;;;8.70;100.00
10806;BME280;5455;53.224;6.000;2023-03-20T12:22:43;101696.47;;;8.66;100.00
10806;BME280;5455;53.224;6.000;2023-03-20T12:25:30;101693.53;;;8.63;100.00
10806;BME280;5455;53.224;6.000;2023-03-20T12:28:05;101699.38;;;8.61;100.00
10806;BME280;5455;53.224;6.000;2023-03-20T12:36:24;101682.41;;;8.68;100.00
10806;BME280;5455;53.224;6.000;2023-03-20T12:38:54;101680.31;;;8.65;100.00
10806;BME280;5455;53.224;6.000;2023-03-20T12:58:18;101664.78;;;8.60;100.00
10806;BME280;5455;53.224;6.000;2023-03-20T13:01:08;101659.75;;;8.62;100.00
10806;BME280;5455;53.224;6.000;2023-03-20T13:06:53;101664.78;;;8.60;100.00
10806;BME280;5455;53.224;6.000;2023-03-20T13:22:33;101653.41;;;8.79;100.00
10806;BME280;5455;53.224;6.000;2023-03-20T13:30:40;101656.47;;;8.77;100.00
10806;BME280;5455;53.224;6.000;2023-03-20T13:36:04;101647.75;;;8.84;100.00
10806;BME280;5455;53.224;6.000;2023-03-20T13:38:36;101647.44;;;8.77;100.00
10806;BME280;5455;53.224;6.000;2023-03-20T13:41:07;101650.97;;;8.77;100.00
10806;BME280;5455;53.224;6.000;2023-03-20T13:43:46;101645.47;;;8.77;100.00
10806;BME280;5455;53.224;6.000;2023-03-20T13:46:42;101647.56;;;8.80;100.00
10806;BME280;5455;53.224;6.000;2023-03-20T13:49:36;101638.22;;;8.73;100.00
10806;BME280;5455;53.224;6.000;2023-03-20T13:52:18;101641.94;;;8.68;100.00
10806;BME280;5455;53.224;6.000;2023-03-20T13:54:58;101642.91;;;8.72;100.00
10806;BME280;5455;53.224;6.000;2023-03-20T14:05:38;101634.22;;;8.62;100.00
10806;BME280;5455;53.224;6.000;2023-03-20T14:13:54;101624.97;;;8.75;100.00
10806;BME280;5455;53.224;6.000;2023-03-20T14:16:22;101625.56;;;8.80;100.00
10806;BME280;5455;53.224;6.000;2023-03-20T14:19:23;101620.25;;;8.75;100.00
10806;BME280;5455;53.224;6.000;2023-03-20T14:21:53;101613.94;;;8.83;100.00
10806;BME280;5455;53.224;6.000;2023-03-20T14:24:23;101618.97;;;8.81;100.00
10806;BME280;5455;53.224;6.000;2023-03-20T14:26:57;101613.66;;;8.76;100.00
10806;BME280;5455;53.224;6.000;2023-03-20T14:34:45;101597.31;;;8.71;100.00
10806;BME280;5455;53.224;6.000;2023-03-20T14:40:16;101608.94;;;8.68;100.00
10806;BME280;5455;53.224;6.000;2023-03-20T14:42:58;101599.28;;;8.71;100.00
10806;BME280;5455;53.224;6.000;2023-03-20T14:53:20;101597.50;;;8.66;100.00
10806;BME280;5455;53.224;6.000;2023-03-20T15:01:15;101591.38;;;8.52;100.00
10806;BME280;5455;53.224;6.000;2023-03-20T15:03:49;101593.31;;;8.52;100.00
10806;BME280;5455;53.224;6.000;2023-03-20T15:06:21;101589.75;;;8.51;100.00
10806;BME280;5455;53.224;6.000;2023-03-20T15:09:06;101588.81;;;8.56;100.00
10806;BME280;5455;53.224;6.000;2023-03-20T15:11:33;101582.50;;;8.55;100.00
10806;BME280;5455;53.224;6.000;2023-03-20T15:14:04;101587.00;;;8.60;100.00
10806;BME280;5455;53.224;6.000;2023-03-20T15:16:34;101588.28;;;8.62;100.00
10806;BME280;5455;53.224;6.000;2023-03-20T15:19:05;101589.44;;;8.61;100.00
10806;BME280;5455;53.224;6.000;2023-03-20T15:21:40;101589.91;;;8.63;100.00
10806;BME280;5455;53.224;6.000;2023-03-20T15:24:25;101594.94;;;8.61;100.00
10806;BME280;5455;53.224;6.000;2023-03-20T15:27:00;101592.50;;;8.60;100.00
10806;BME280;5455;53.224;6.000;2023-03-20T15:29:28;101599.94;;;8.59;100.00
10806;BME280;5455;53.224;6.000;2023-03-20T15:31:58;101597.69;;;8.61;100.00
10806;BME280;5455;53.224;6.000;2023-03-20T15:34:41;101590.56;;;8.60;100.00
10806;BME280;5455;53.224;6.000;2023-03-20T15:37:13;101591.03;;;8.62;100.00
10806;BME280;5455;53.224;6.000;2023-03-20T15:39:46;101588.78;;;8.64;100.00
10806;BME280;5455;53.224;6.000;2023-03-20T15:42:17;101595.56;;;8.67;100.00
10806;BME280;5455;53.224;6.000;2023-03-20T15:44:46;101595.72;;;8.70;100.00
10806;BME280;5455;53.224;6.000;2023-03-20T15:47:16;101591.16;;;8.74;100.00
10806;BME280;5455;53.224;6.000;2023-03-20T15:49:54;101582.75;;;8.79;100.00
10806;BME280;5455;53.224;6.000;2023-03-20T15:52:31;101580.16;;;8.83;100.00
10806;BME280;5455;53.224;6.000;2023-03-20T15:55:04;101582.34;;;8.90;100.00
10806;BME280;5455;53.224;6.000;2023-03-20T15:57:37;101571.50;;;8.93;100.00
10806;BME280;5455;53.224;6.000;2023-03-20T16:00:08;101580.72;;;8.97;100.00
10806;BME280;5455;53.224;6.000;2023-03-20T16:02:39;101575.22;;;8.97;100.00
10806;BME280;5455;53.224;6.000;2023-03-20T16:05:12;101571.34;;;8.98;100.00